Friday, September 21, 2018, 6:04 PM EDT
Back to Local

KPYM, Plymouth Municipal Airport

Location: Carver, MA, United States Lat: 41.9
Local Time: 6:04 PM EDT (22:04 GMT) Lon: -70.733
Time Zone: US/Eastern Elev: 147 ft

Show me the last for .
Show Decoded

2018-09-21 17:52 METAR KPYM 212152Z AUTO 20008KT 10SM OVC046 18/14 A3010 RMK AO2 SLP191 T01830139
                 =
2018-09-21 16:52 METAR KPYM 212052Z AUTO 20008KT 10SM BKN050 18/13 A3012 RMK AO2 SLP198 T01830128
                 58024 =
2018-09-21 15:52 METAR KPYM 211952Z AUTO 20009G17KT 10SM CLR 19/12 A3014 RMK AO2 SLP207 T01940122
                 $ =
2018-09-21 14:52 METAR KPYM 211852Z AUTO 17007KT 140V200 10SM FEW028 21/13 A3016 RMK AO2 SLP213
                 T02060128 $ =
2018-09-21 14:37 METAR KPYM 211837Z AUTO 21010G16KT 10SM SCT028 21/13 A3017 RMK AO2 T02060128 $ =
2018-09-21 13:52 METAR KPYM 211752Z AUTO 19009G16KT 10SM BKN028 20/12 A3019 RMK AO2 SLP222
                 T02000122 10211 20150 56017 $ =
2018-09-21 13:48 METAR KPYM 211748Z AUTO 19010G16KT 10SM BKN028 20/13 A3019 RMK AO2 $ =
2018-09-21 12:52 METAR KPYM 211652Z AUTO 20009KT 10SM FEW029 20/11 A3022 RMK AO2 SLP234 T02000106
                 $ =
2018-09-21 11:52 METAR KPYM 211552Z AUTO 14008KT 10SM 20/11 A3024 RMK AO2 SLP239 T02000111 $ =
2018-09-21 10:52 METAR KPYM 211452Z AUTO 16007KT 10SM FEW029 19/12 A3027 RMK AO2 SLP250 T01940117
                 58016 =
2018-09-21 09:52 METAR KPYM 211352Z AUTO 13008KT 110V170 10SM OVC095 18/11 A3030 RMK AO2 SLP259
                 T01830106 =
2018-09-21 08:52 METAR KPYM 211252Z AUTO 15003KT 10SM BKN095 17/12 A3031 RMK AO2 SLP265 T01670117
                 =
2018-09-21 07:52 METAR KPYM 211152Z AUTO 00000KT 10SM FEW110 15/13 A3032 RMK AO2 SLP266 70008
                 T01500128 10150 20128 51009 =
2018-09-21 06:52 METAR KPYM 211052Z AUTO 00000KT 10SM BKN110 13/12 A3031 RMK AO2 SLP263 T01330122
                 =
2018-09-21 05:52 METAR KPYM 210952Z AUTO 00000KT 10SM CLR 14/12 A3030 RMK AO2 SLP260 T01440122 =
2018-09-21 04:52 METAR KPYM 210852Z AUTO 00000KT 10SM CLR 14/12 A3029 RMK AO2 SLP256 T01390122
                 57002 =
2018-09-21 03:52 METAR KPYM 210752Z AUTO 00000KT 10SM FEW110 13/12 A3029 RMK AO2 SLP256 T01330122
                 =
2018-09-21 02:52 METAR KPYM 210652Z AUTO 00000KT 10SM CLR 14/12 A3030 RMK AO2 SLP259 T01390122 =
2018-09-21 01:52 METAR KPYM 210552Z AUTO 00000KT 10SM CLR 14/13 A3030 RMK AO2 SLP258 T01440128
                 10161 20144 58001 =
2018-09-21 00:52 METAR KPYM 210452Z AUTO 00000KT 10SM CLR 14/13 A3031 RMK AO2 SLP263 T01440133
                 401940144 =
2018-09-20 23:52 METAR KPYM 210352Z AUTO 00000KT 10SM CLR 14/13 A3030 RMK AO2 SLP260 T01440128 =
2018-09-20 22:52 METAR KPYM 210252Z AUTO 00000KT 10SM CLR 14/13 A3030 RMK AO2 SLP260 T01440128
                 50006 =
2018-09-20 21:52 METAR KPYM 210152Z AUTO 09003KT 10SM OVC050 16/13 A3030 RMK AO2 SLP261 T01610128
                 =
2018-09-20 20:52 METAR KPYM 210052Z AUTO 02003KT 10SM OVC047 16/12 A3031 RMK AO2 SLP264 T01610122
                 =
2018-09-20 19:52 METAR KPYM 202352Z AUTO 06004KT 10SM OVC046 16/13 A3028 RMK AO2 SLP253 T01610128
                 10194 20161 53008 =
2018-09-20 18:52 METAR KPYM 202252Z AUTO 08006KT 10SM OVC041 17/13 A3027 RMK AO2 SLP249 T01670128
                 =

Support USWX by starting your Amazon purchase here.